sensor_id;sensor_type;location;lat;lon;timestamp;temperature;humidity
69418;DHT22;56610;48.872;2.400;2023-02-15T00:01:44;13.40;99.90
69418;DHT22;56610;48.872;2.400;2023-02-15T00:04:13;13.40;99.90
69418;DHT22;56610;48.872;2.400;2023-02-15T00:06:39;13.40;99.90
69418;DHT22;56610;48.872;2.400;2023-02-15T00:09:04;13.40;99.90
69418;DHT22;56610;48.872;2.400;2023-02-15T00:11:30;13.30;99.90
69418;DHT22;56610;48.872;2.400;2023-02-15T00:16:35;13.30;99.90
69418;DHT22;56610;48.872;2.400;2023-02-15T00:19:01;13.40;99.90
69418;DHT22;56610;48.872;2.400;2023-02-15T00:21:28;13.50;99.90
69418;DHT22;56610;48.872;2.400;2023-02-15T00:23:55;13.60;99.90
69418;DHT22;56610;48.872;2.400;2023-02-15T00:26:21;13.60;99.90
69418;DHT22;56610;48.872;2.400;2023-02-15T00:28:47;13.50;99.90
69418;DHT22;56610;48.872;2.400;2023-02-15T00:31:12;13.50;99.90
69418;DHT22;56610;48.872;2.400;2023-02-15T00:33:39;13.40;99.90
69418;DHT22;56610;48.872;2.400;2023-02-15T00:36:07;13.40;99.90
69418;DHT22;56610;48.872;2.400;2023-02-15T00:38:33;13.20;99.90
69418;DHT22;56610;48.872;2.400;2023-02-15T00:41:04;13.10;99.90
69418;DHT22;56610;48.872;2.400;2023-02-15T00:43:31;13.20;99.90
69418;DHT22;56610;48.872;2.400;2023-02-15T00:45:57;13.30;99.90
69418;DHT22;56610;48.872;2.400;2023-02-15T00:48:24;13.40;99.90
69418;DHT22;56610;48.872;2.400;2023-02-15T00:50:52;13.50;99.90
69418;DHT22;56610;48.872;2.400;2023-02-15T00:53:18;13.50;99.90
69418;DHT22;56610;48.872;2.400;2023-02-15T00:55:44;13.50;99.90
69418;DHT22;56610;48.872;2.400;2023-02-15T00:58:11;13.40;99.90
69418;DHT22;56610;48.872;2.400;2023-02-15T01:00:37;13.50;99.90
69418;DHT22;56610;48.872;2.400;2023-02-15T01:03:04;13.70;99.90
69418;DHT22;56610;48.872;2.400;2023-02-15T01:05:30;14.00;99.90
69418;DHT22;56610;48.872;2.400;2023-02-15T01:07:56;14.20;99.90
69418;DHT22;56610;48.872;2.400;2023-02-15T01:10:23;14.20;99.90
69418;DHT22;56610;48.872;2.400;2023-02-15T01:12:50;14.20;99.90
69418;DHT22;56610;48.872;2.400;2023-02-15T01:15:16;14.20;99.90
69418;DHT22;56610;48.872;2.400;2023-02-15T01:17:42;14.10;99.90
69418;DHT22;56610;48.872;2.400;2023-02-15T01:20:11;14.30;99.90
69418;DHT22;56610;48.872;2.400;2023-02-15T01:22:37;14.50;99.90
69418;DHT22;56610;48.872;2.400;2023-02-15T01:25:03;14.70;99.90
69418;DHT22;56610;48.872;2.400;2023-02-15T01:27:29;14.50;99.90
69418;DHT22;56610;48.872;2.400;2023-02-15T01:29:56;14.50;99.90
69418;DHT22;56610;48.872;2.400;2023-02-15T01:32:22;14.40;99.90
69418;DHT22;56610;48.872;2.400;2023-02-15T01:34:48;14.30;99.90
69418;DHT22;56610;48.872;2.400;2023-02-15T01:37:13;14.50;99.90
69418;DHT22;56610;48.872;2.400;2023-02-15T01:39:39;14.50;99.90
69418;DHT22;56610;48.872;2.400;2023-02-15T01:42:05;14.70;99.90
69418;DHT22;56610;48.872;2.400;2023-02-15T01:47:17;14.70;99.90
69418;DHT22;56610;48.872;2.400;2023-02-15T01:49:46;14.60;99.90
69418;DHT22;56610;48.872;2.400;2023-02-15T01:52:15;14.50;99.90
69418;DHT22;56610;48.872;2.400;2023-02-15T01:54:44;14.50;99.90
69418;DHT22;56610;48.872;2.400;2023-02-15T01:57:16;14.70;99.90
69418;DHT22;56610;48.872;2.400;2023-02-15T01:59:46;14.90;99.90
69418;DHT22;56610;48.872;2.400;2023-02-15T02:02:14;15.00;99.90
69418;DHT22;56610;48.872;2.400;2023-02-15T02:05:02;15.20;99.90
69418;DHT22;56610;48.872;2.400;2023-02-15T02:07:37;15.40;99.90
69418;DHT22;56610;48.872;2.400;2023-02-15T02:10:05;15.40;99.90
69418;DHT22;56610;48.872;2.400;2023-02-15T02:12:31;15.20;99.90
69418;DHT22;56610;48.872;2.400;2023-02-15T02:14:58;15.10;99.90
69418;DHT22;56610;48.872;2.400;2023-02-15T02:29:18;15.10;99.90
69418;DHT22;56610;48.872;2.400;2023-02-15T02:34:33;15.10;99.90
69418;DHT22;56610;48.872;2.400;2023-02-15T02:39:59;15.10;99.90
69418;DHT22;56610;48.872;2.400;2023-02-15T02:42:39;15.10;99.90
69418;DHT22;56610;48.872;2.400;2023-02-15T02:45:16;15.20;99.90
69418;DHT22;56610;48.872;2.400;2023-02-15T02:48:08;15.30;99.90
69418;DHT22;56610;48.872;2.400;2023-02-15T02:50:35;15.20;99.90
69418;DHT22;56610;48.872;2.400;2023-02-15T02:53:00;15.20;99.90
69418;DHT22;56610;48.872;2.400;2023-02-15T03:00:40;14.90;99.90
69418;DHT22;56610;48.872;2.400;2023-02-15T03:05:59;15.00;99.90
69418;DHT22;56610;48.872;2.400;2023-02-15T03:08:33;15.10;99.90
69418;DHT22;56610;48.872;2.400;2023-02-15T03:11:02;15.10;99.90
69418;DHT22;56610;48.872;2.400;2023-02-15T03:13:28;15.20;99.90
69418;DHT22;56610;48.872;2.400;2023-02-15T03:15:55;15.30;99.90
69418;DHT22;56610;48.872;2.400;2023-02-15T03:18:46;15.10;99.90
69418;DHT22;56610;48.872;2.400;2023-02-15T03:21:21;15.00;99.90
69418;DHT22;56610;48.872;2.400;2023-02-15T03:23:54;14.80;99.90
69418;DHT22;56610;48.872;2.400;2023-02-15T03:26:24;14.80;99.90
69418;DHT22;56610;48.872;2.400;2023-02-15T03:28:53;14.90;99.90
69418;DHT22;56610;48.872;2.400;2023-02-15T03:31:22;15.00;99.90
69418;DHT22;56610;48.872;2.400;2023-02-15T03:34:03;15.00;99.90
69418;DHT22;56610;48.872;2.400;2023-02-15T03:36:52;15.00;99.90
69418;DHT22;56610;48.872;2.400;2023-02-15T03:39:32;15.10;99.90
69418;DHT22;56610;48.872;2.400;2023-02-15T03:45:00;14.30;99.90
69418;DHT22;56610;48.872;2.400;2023-02-15T03:47:30;14.10;99.90
69418;DHT22;56610;48.872;2.400;2023-02-15T03:52:53;14.10;99.90
69418;DHT22;56610;48.872;2.400;2023-02-15T03:55:20;14.20;99.90
69418;DHT22;56610;48.872;2.400;2023-02-15T03:57:45;14.30;99.90
69418;DHT22;56610;48.872;2.400;2023-02-15T04:00:35;14.60;99.90
69418;DHT22;56610;48.872;2.400;2023-02-15T04:03:33;14.60;99.90
69418;DHT22;56610;48.872;2.400;2023-02-15T04:06:03;14.50;99.90
69418;DHT22;56610;48.872;2.400;2023-02-15T04:08:28;14.50;99.90
69418;DHT22;56610;48.872;2.400;2023-02-15T04:11:13;14.60;99.90
69418;DHT22;56610;48.872;2.400;2023-02-15T04:13:39;14.50;99.90
69418;DHT22;56610;48.872;2.400;2023-02-15T04:16:05;14.50;99.90
69418;DHT22;56610;48.872;2.400;2023-02-15T04:18:33;14.60;99.90
69418;DHT22;56610;48.872;2.400;2023-02-15T04:21:18;14.60;99.90
69418;DHT22;56610;48.872;2.400;2023-02-15T04:24:03;14.80;99.90
69418;DHT22;56610;48.872;2.400;2023-02-15T04:26:48;15.00;99.90
69418;DHT22;56610;48.872;2.400;2023-02-15T04:29:14;15.00;99.90
69418;DHT22;56610;48.872;2.400;2023-02-15T04:31:41;14.80;99.90
69418;DHT22;56610;48.872;2.400;2023-02-15T04:34:10;14.70;99.90
69418;DHT22;56610;48.872;2.400;2023-02-15T04:36:37;14.60;99.90
69418;DHT22;56610;48.872;2.400;2023-02-15T04:39:03;14.60;99.90
69418;DHT22;56610;48.872;2.400;2023-02-15T04:41:29;14.60;99.90
69418;DHT22;56610;48.872;2.400;2023-02-15T04:43:54;14.50;99.90
69418;DHT22;56610;48.872;2.400;2023-02-15T04:46:20;14.50;99.90
69418;DHT22;56610;48.872;2.400;2023-02-15T04:48:46;14.60;99.90
69418;DHT22;56610;48.872;2.400;2023-02-15T04:51:11;14.70;99.90
69418;DHT22;56610;48.872;2.400;2023-02-15T04:53:37;14.90;99.90
69418;DHT22;56610;48.872;2.400;2023-02-15T04:56:03;15.00;99.90
69418;DHT22;56610;48.872;2.400;2023-02-15T04:58:28;15.20;99.90
69418;DHT22;56610;48.872;2.400;2023-02-15T05:00:57;14.90;99.90
69418;DHT22;56610;48.872;2.400;2023-02-15T05:03:24;14.80;99.90
69418;DHT22;56610;48.872;2.400;2023-02-15T05:05:49;14.70;99.90
69418;DHT22;56610;48.872;2.400;2023-02-15T05:08:15;14.60;99.90
69418;DHT22;56610;48.872;2.400;2023-02-15T05:10:41;14.60;99.90
69418;DHT22;56610;48.872;2.400;2023-02-15T05:13:07;14.50;99.90
69418;DHT22;56610;48.872;2.400;2023-02-15T05:15:33;14.50;99.90
69418;DHT22;56610;48.872;2.400;2023-02-15T05:17:58;14.50;99.90
69418;DHT22;56610;48.872;2.400;2023-02-15T05:20:24;14.50;99.90
69418;DHT22;56610;48.872;2.400;2023-02-15T05:22:53;14.60;99.90
69418;DHT22;56610;48.872;2.400;2023-02-15T05:25:19;14.60;99.90
69418;DHT22;56610;48.872;2.400;2023-02-15T05:28:03;14.70;99.90
69418;DHT22;56610;48.872;2.400;2023-02-15T05:30:45;14.70;99.90
69418;DHT22;56610;48.872;2.400;2023-02-15T05:33:10;14.60;99.90
69418;DHT22;56610;48.872;2.400;2023-02-15T05:35:36;14.70;99.90
69418;DHT22;56610;48.872;2.400;2023-02-15T05:38:02;14.90;99.90
69418;DHT22;56610;48.872;2.400;2023-02-15T05:40:27;14.90;99.90
69418;DHT22;56610;48.872;2.400;2023-02-15T05:42:53;14.70;99.90
69418;DHT22;56610;48.872;2.400;2023-02-15T05:45:18;14.50;99.90
69418;DHT22;56610;48.872;2.400;2023-02-15T05:47:44;14.40;99.90
69418;DHT22;56610;48.872;2.400;2023-02-15T05:50:10;14.20;99.90
69418;DHT22;56610;48.872;2.400;2023-02-15T05:52:37;14.10;99.90
69418;DHT22;56610;48.872;2.400;2023-02-15T05:55:03;14.10;99.90
69418;DHT22;56610;48.872;2.400;2023-02-15T05:57:29;14.10;99.90
69418;DHT22;56610;48.872;2.400;2023-02-15T05:59:55;14.10;99.90
69418;DHT22;56610;48.872;2.400;2023-02-15T06:02:21;14.00;99.90
69418;DHT22;56610;48.872;2.400;2023-02-15T06:04:46;14.00;99.90
69418;DHT22;56610;48.872;2.400;2023-02-15T06:07:12;14.00;99.90
69418;DHT22;56610;48.872;2.400;2023-02-15T06:09:37;14.10;99.90
69418;DHT22;56610;48.872;2.400;2023-02-15T06:12:03;14.20;99.90
69418;DHT22;56610;48.872;2.400;2023-02-15T06:14:29;14.30;99.90
69418;DHT22;56610;48.872;2.400;2023-02-15T06:16:54;14.30;99.90
69418;DHT22;56610;48.872;2.400;2023-02-15T06:19:20;14.40;99.90
69418;DHT22;56610;48.872;2.400;2023-02-15T06:21:46;14.50;99.90
69418;DHT22;56610;48.872;2.400;2023-02-15T06:24:12;14.50;99.90
69418;DHT22;56610;48.872;2.400;2023-02-15T06:26:37;14.60;99.90
69418;DHT22;56610;48.872;2.400;2023-02-15T06:29:03;14.70;99.90
69418;DHT22;56610;48.872;2.400;2023-02-15T06:31:29;14.90;99.90
69418;DHT22;56610;48.872;2.400;2023-02-15T06:33:55;15.00;99.70
69418;DHT22;56610;48.872;2.400;2023-02-15T06:36:30;15.20;99.50
69418;DHT22;56610;48.872;2.400;2023-02-15T06:38:56;15.10;99.30
69418;DHT22;56610;48.872;2.400;2023-02-15T06:41:22;15.20;99.50
69418;DHT22;56610;48.872;2.400;2023-02-15T06:43:48;15.10;99.10
69418;DHT22;56610;48.872;2.400;2023-02-15T06:46:14;14.90;99.40
69418;DHT22;56610;48.872;2.400;2023-02-15T06:48:40;14.90;99.60
69418;DHT22;56610;48.872;2.400;2023-02-15T06:51:06;14.90;99.80
69418;DHT22;56610;48.872;2.400;2023-02-15T06:53:31;14.90;99.60
69418;DHT22;56610;48.872;2.400;2023-02-15T06:56:05;15.00;99.40
69418;DHT22;56610;48.872;2.400;2023-02-15T06:58:39;15.00;99.40
69418;DHT22;56610;48.872;2.400;2023-02-15T07:01:05;14.80;99.70
69418;DHT22;56610;48.872;2.400;2023-02-15T07:03:32;14.80;99.50
69418;DHT22;56610;48.872;2.400;2023-02-15T07:05:59;14.80;99.40
69418;DHT22;56610;48.872;2.400;2023-02-15T07:08:25;14.90;99.20
69418;DHT22;56610;48.872;2.400;2023-02-15T07:10:53;15.10;99.20
69418;DHT22;56610;48.872;2.400;2023-02-15T07:13:19;15.10;98.80
69418;DHT22;56610;48.872;2.400;2023-02-15T07:18:31;15.10;98.70
69418;DHT22;56610;48.872;2.400;2023-02-15T07:20:56;14.80;99.10
69418;DHT22;56610;48.872;2.400;2023-02-15T07:23:22;14.70;99.30
69418;DHT22;56610;48.872;2.400;2023-02-15T07:25:48;14.40;99.50
69418;DHT22;56610;48.872;2.400;2023-02-15T07:28:13;14.20;99.90
69418;DHT22;56610;48.872;2.400;2023-02-15T07:30:41;13.40;99.90
69418;DHT22;56610;48.872;2.400;2023-02-15T07:33:06;12.90;99.90
69418;DHT22;56610;48.872;2.400;2023-02-15T07:35:58;12.80;99.90
69418;DHT22;56610;48.872;2.400;2023-02-15T07:38:25;12.70;99.90
69418;DHT22;56610;48.872;2.400;2023-02-15T07:40:51;12.90;99.90
69418;DHT22;56610;48.872;2.400;2023-02-15T07:43:17;13.00;99.90
69418;DHT22;56610;48.872;2.400;2023-02-15T07:45:43;13.10;99.90
69418;DHT22;56610;48.872;2.400;2023-02-15T07:48:08;13.30;99.90
69418;DHT22;56610;48.872;2.400;2023-02-15T07:50:34;13.40;99.90
69418;DHT22;56610;48.872;2.400;2023-02-15T07:53:03;13.60;99.90
69418;DHT22;56610;48.872;2.400;2023-02-15T07:55:29;13.70;99.90
69418;DHT22;56610;48.872;2.400;2023-02-15T07:57:55;13.80;99.90
69418;DHT22;56610;48.872;2.400;2023-02-15T08:00:21;13.80;99.90
69418;DHT22;56610;48.872;2.400;2023-02-15T08:02:56;13.80;99.90
69418;DHT22;56610;48.872;2.400;2023-02-15T08:05:41;14.00;99.90
69418;DHT22;56610;48.872;2.400;2023-02-15T08:08:07;14.40;99.90
69418;DHT22;56610;48.872;2.400;2023-02-15T08:10:35;14.50;99.90
69418;DHT22;56610;48.872;2.400;2023-02-15T08:13:19;14.60;99.90
69418;DHT22;56610;48.872;2.400;2023-02-15T08:15:49;14.90;99.90
69418;DHT22;56610;48.872;2.400;2023-02-15T08:18:15;15.00;99.60
69418;DHT22;56610;48.872;2.400;2023-02-15T08:20:40;14.70;99.90
69418;DHT22;56610;48.872;2.400;2023-02-15T08:23:06;14.50;99.90
69418;DHT22;56610;48.872;2.400;2023-02-15T08:25:32;14.30;99.90
69418;DHT22;56610;48.872;2.400;2023-02-15T08:27:57;14.10;99.90
69418;DHT22;56610;48.872;2.400;2023-02-15T08:30:23;13.90;99.90
69418;DHT22;56610;48.872;2.400;2023-02-15T08:32:49;13.80;99.90
69418;DHT22;56610;48.872;2.400;2023-02-15T08:35:14;13.70;99.90
69418;DHT22;56610;48.872;2.400;2023-02-15T08:37:40;13.80;99.90
69418;DHT22;56610;48.872;2.400;2023-02-15T08:40:06;13.90;99.90
69418;DHT22;56610;48.872;2.400;2023-02-15T08:42:33;14.00;99.90
69418;DHT22;56610;48.872;2.400;2023-02-15T08:44:59;14.00;99.90
69418;DHT22;56610;48.872;2.400;2023-02-15T08:47:24;14.00;99.90
69418;DHT22;56610;48.872;2.400;2023-02-15T08:49:50;14.00;99.90
69418;DHT22;56610;48.872;2.400;2023-02-15T08:52:16;14.00;99.90
69418;DHT22;56610;48.872;2.400;2023-02-15T08:54:42;14.10;99.90
69418;DHT22;56610;48.872;2.400;2023-02-15T08:57:08;14.30;99.90
69418;DHT22;56610;48.872;2.400;2023-02-15T08:59:34;14.40;99.90
69418;DHT22;56610;48.872;2.400;2023-02-15T09:02:01;14.50;99.90
69418;DHT22;56610;48.872;2.400;2023-02-15T09:04:26;14.60;99.90
69418;DHT22;56610;48.872;2.400;2023-02-15T09:06:52;14.80;99.90
69418;DHT22;56610;48.872;2.400;2023-02-15T09:09:18;15.00;99.80
69418;DHT22;56610;48.872;2.400;2023-02-15T09:11:47;15.10;99.30
69418;DHT22;56610;48.872;2.400;2023-02-15T09:14:15;14.90;99.40
69418;DHT22;56610;48.872;2.400;2023-02-15T09:16:42;14.70;99.70
69418;DHT22;56610;48.872;2.400;2023-02-15T09:19:11;14.50;99.90
69418;DHT22;56610;48.872;2.400;2023-02-15T09:21:38;14.40;99.90
69418;DHT22;56610;48.872;2.400;2023-02-15T09:24:14;14.10;99.90
69418;DHT22;56610;48.872;2.400;2023-02-15T09:26:45;14.10;99.90
69418;DHT22;56610;48.872;2.400;2023-02-15T09:29:12;14.20;99.90
69418;DHT22;56610;48.872;2.400;2023-02-15T09:31:43;14.30;99.90
69418;DHT22;56610;48.872;2.400;2023-02-15T09:34:11;14.40;99.90
69418;DHT22;56610;48.872;2.400;2023-02-15T09:36:39;14.60;99.90
69418;DHT22;56610;48.872;2.400;2023-02-15T09:39:14;14.80;99.90
69418;DHT22;56610;48.872;2.400;2023-02-15T09:49:46;15.20;99.40
69418;DHT22;56610;48.872;2.400;2023-02-15T09:55:51;15.30;99.00
69418;DHT22;56610;48.872;2.400;2023-02-15T10:16:53;15.00;99.20
69418;DHT22;56610;48.872;2.400;2023-02-15T10:27:46;15.40;98.90
69418;DHT22;56610;48.872;2.400;2023-02-15T10:30:14;15.50;98.90
69418;DHT22;56610;48.872;2.400;2023-02-15T10:35:26;15.70;99.00
69418;DHT22;56610;48.872;2.400;2023-02-15T10:43:46;15.70;98.70
69418;DHT22;56610;48.872;2.400;2023-02-15T10:55:15;15.70;98.70
69418;DHT22;56610;48.872;2.400;2023-02-15T11:06:20;16.10;98.40
69418;DHT22;56610;48.872;2.400;2023-02-15T11:09:00;16.10;98.50
69418;DHT22;56610;48.872;2.400;2023-02-15T11:11:36;16.10;98.40
69418;DHT22;56610;48.872;2.400;2023-02-15T11:16:42;16.30;98.40
69418;DHT22;56610;48.872;2.400;2023-02-15T11:19:29;16.40;98.30
69418;DHT22;56610;48.872;2.400;2023-02-15T11:21:59;16.60;97.80
69418;DHT22;56610;48.872;2.400;2023-02-15T11:24:28;16.90;97.50
69418;DHT22;56610;48.872;2.400;2023-02-15T11:27:00;17.20;97.20
69418;DHT22;56610;48.872;2.400;2023-02-15T11:29:47;17.40;97.20
69418;DHT22;56610;48.872;2.400;2023-02-15T11:43:16;18.60;95.50
69418;DHT22;56610;48.872;2.400;2023-02-15T11:45:45;18.90;95.60
69418;DHT22;56610;48.872;2.400;2023-02-15T11:48:13;18.90;95.50
69418;DHT22;56610;48.872;2.400;2023-02-15T11:50:39;18.90;94.90
69418;DHT22;56610;48.872;2.400;2023-02-15T11:53:19;19.00;95.00
69418;DHT22;56610;48.872;2.400;2023-02-15T11:55:55;19.20;94.70
69418;DHT22;56610;48.872;2.400;2023-02-15T11:58:37;19.20;94.60
69418;DHT22;56610;48.872;2.400;2023-02-15T12:01:22;19.20;94.30
69418;DHT22;56610;48.872;2.400;2023-02-15T12:03:50;19.00;94.30
69418;DHT22;56610;48.872;2.400;2023-02-15T12:06:19;18.90;94.60
69418;DHT22;56610;48.872;2.400;2023-02-15T12:11:35;19.00;94.30
69418;DHT22;56610;48.872;2.400;2023-02-15T12:14:07;18.90;94.30
69418;DHT22;56610;48.872;2.400;2023-02-15T12:19:19;19.00;94.10
69418;DHT22;56610;48.872;2.400;2023-02-15T12:21:49;18.90;94.40
69418;DHT22;56610;48.872;2.400;2023-02-15T12:24:20;18.90;94.10
69418;DHT22;56610;48.872;2.400;2023-02-15T12:26:57;19.00;94.20
69418;DHT22;56610;48.872;2.400;2023-02-15T12:29:27;19.00;94.20
69418;DHT22;56610;48.872;2.400;2023-02-15T12:31:57;19.00;94.10
69418;DHT22;56610;48.872;2.400;2023-02-15T12:34:42;19.00;94.00
69418;DHT22;56610;48.872;2.400;2023-02-15T12:39:54;18.70;94.20
69418;DHT22;56610;48.872;2.400;2023-02-15T12:42:20;18.30;94.20
69418;DHT22;56610;48.872;2.400;2023-02-15T12:47:23;18.10;94.70
69418;DHT22;56610;48.872;2.400;2023-02-15T12:52:46;18.10;94.60
69418;DHT22;56610;48.872;2.400;2023-02-15T12:55:25;18.10;95.00
69418;DHT22;56610;48.872;2.400;2023-02-15T12:58:17;18.20;94.50
69418;DHT22;56610;48.872;2.400;2023-02-15T13:00:44;18.30;94.50
69418;DHT22;56610;48.872;2.400;2023-02-15T13:03:18;18.30;94.70
69418;DHT22;56610;48.872;2.400;2023-02-15T13:05:47;18.10;94.50
69418;DHT22;56610;48.872;2.400;2023-02-15T13:08:18;18.20;94.60
69418;DHT22;56610;48.872;2.400;2023-02-15T13:10:57;18.30;95.00
69418;DHT22;56610;48.872;2.400;2023-02-15T13:13:26;18.50;94.40
69418;DHT22;56610;48.872;2.400;2023-02-15T13:15:54;18.50;94.30
69418;DHT22;56610;48.872;2.400;2023-02-15T13:18:44;18.60;93.90
69418;DHT22;56610;48.872;2.400;2023-02-15T13:21:17;18.50;94.30
69418;DHT22;56610;48.872;2.400;2023-02-15T13:23:56;18.50;94.30
69418;DHT22;56610;48.872;2.400;2023-02-15T13:26:23;18.50;94.30
69418;DHT22;56610;48.872;2.400;2023-02-15T13:28:54;18.50;94.20
69418;DHT22;56610;48.872;2.400;2023-02-15T13:31:24;18.40;94.20
69418;DHT22;56610;48.872;2.400;2023-02-15T13:34:10;18.30;94.30
69418;DHT22;56610;48.872;2.400;2023-02-15T13:39:35;18.20;94.60
69418;DHT22;56610;48.872;2.400;2023-02-15T13:42:27;18.10;94.50
69418;DHT22;56610;48.872;2.400;2023-02-15T13:53:35;17.60;95.60
69418;DHT22;56610;48.872;2.400;2023-02-15T14:07:17;17.30;95.60
69418;DHT22;56610;48.872;2.400;2023-02-15T14:15:33;17.20;95.80
69418;DHT22;56610;48.872;2.400;2023-02-15T14:26:30;17.00;96.30
69418;DHT22;56610;48.872;2.400;2023-02-15T14:31:39;17.00;96.50
69418;DHT22;56610;48.872;2.400;2023-02-15T14:34:07;17.10;96.80
69418;DHT22;56610;48.872;2.400;2023-02-15T14:36:33;17.00;96.50
69418;DHT22;56610;48.872;2.400;2023-02-15T14:41:45;17.00;96.50
69418;DHT22;56610;48.872;2.400;2023-02-15T14:44:24;17.00;96.60
69418;DHT22;56610;48.872;2.400;2023-02-15T14:49:38;17.00;96.50
69418;DHT22;56610;48.872;2.400;2023-02-15T14:52:08;17.00;96.50
69418;DHT22;56610;48.872;2.400;2023-02-15T15:09:58;17.00;96.90
69418;DHT22;56610;48.872;2.400;2023-02-15T15:14:54;17.20;96.60
69418;DHT22;56610;48.872;2.400;2023-02-15T15:20:12;17.30;96.40
69418;DHT22;56610;48.872;2.400;2023-02-15T15:22:40;17.40;96.40
69418;DHT22;56610;48.872;2.400;2023-02-15T15:27:54;17.40;96.30
69418;DHT22;56610;48.872;2.400;2023-02-15T15:43:58;18.10;95.80
69418;DHT22;56610;48.872;2.400;2023-02-15T15:49:30;18.30;95.40
69418;DHT22;56610;48.872;2.400;2023-02-15T15:52:07;18.30;95.50
69418;DHT22;56610;48.872;2.400;2023-02-15T15:54:34;18.30;95.60
69418;DHT22;56610;48.872;2.400;2023-02-15T15:57:03;18.40;95.40
69418;DHT22;56610;48.872;2.400;2023-02-15T15:59:32;18.40;95.40
69418;DHT22;56610;48.872;2.400;2023-02-15T16:02:14;18.30;95.60
69418;DHT22;56610;48.872;2.400;2023-02-15T16:04:44;18.20;95.60
69418;DHT22;56610;48.872;2.400;2023-02-15T16:10:07;17.90;95.80
69418;DHT22;56610;48.872;2.400;2023-02-15T16:12:35;17.80;95.90
69418;DHT22;56610;48.872;2.400;2023-02-15T16:15:12;17.70;96.10
69418;DHT22;56610;48.872;2.400;2023-02-15T16:17:42;17.50;96.30
69418;DHT22;56610;48.872;2.400;2023-02-15T16:20:41;17.40;96.60
69418;DHT22;56610;48.872;2.400;2023-02-15T16:28:53;17.30;96.70
69418;DHT22;56610;48.872;2.400;2023-02-15T16:31:19;17.30;96.80
69418;DHT22;56610;48.872;2.400;2023-02-15T16:33:47;17.20;96.90
69418;DHT22;56610;48.872;2.400;2023-02-15T16:36:25;17.20;97.10
69418;DHT22;56610;48.872;2.400;2023-02-15T16:41:27;17.10;97.20
69418;DHT22;56610;48.872;2.400;2023-02-15T16:43:56;17.00;97.30
69418;DHT22;56610;48.872;2.400;2023-02-15T16:46:32;17.00;97.40
69418;DHT22;56610;48.872;2.400;2023-02-15T16:49:02;16.90;97.50
69418;DHT22;56610;48.872;2.400;2023-02-15T16:51:31;16.90;97.50
69418;DHT22;56610;48.872;2.400;2023-02-15T16:54:05;16.90;97.60
69418;DHT22;56610;48.872;2.400;2023-02-15T16:56:51;16.80;97.80
69418;DHT22;56610;48.872;2.400;2023-02-15T16:59:30;16.80;97.90
69418;DHT22;56610;48.872;2.400;2023-02-15T17:01:57;16.80;98.00
69418;DHT22;56610;48.872;2.400;2023-02-15T17:04:27;16.80;98.10
69418;DHT22;56610;48.872;2.400;2023-02-15T17:07:19;16.80;98.20
69418;DHT22;56610;48.872;2.400;2023-02-15T17:09:53;16.80;98.40
69418;DHT22;56610;48.872;2.400;2023-02-15T17:12:45;16.80;98.40
69418;DHT22;56610;48.872;2.400;2023-02-15T17:18:19;16.70;98.60
69418;DHT22;56610;48.872;2.400;2023-02-15T17:20:48;16.60;98.70
69418;DHT22;56610;48.872;2.400;2023-02-15T17:25:48;16.50;98.90
69418;DHT22;56610;48.872;2.400;2023-02-15T17:28:22;16.60;98.90
69418;DHT22;56610;48.872;2.400;2023-02-15T17:30:50;16.50;99.00
69418;DHT22;56610;48.872;2.400;2023-02-15T17:36:16;16.40;99.30
69418;DHT22;56610;48.872;2.400;2023-02-15T17:39:04;16.40;99.40
69418;DHT22;56610;48.872;2.400;2023-02-15T17:41:33;16.40;99.40
69418;DHT22;56610;48.872;2.400;2023-02-15T17:44:00;16.50;99.40
69418;DHT22;56610;48.872;2.400;2023-02-15T17:46:33;16.50;99.40
69418;DHT22;56610;48.872;2.400;2023-02-15T17:49:00;16.40;99.40
69418;DHT22;56610;48.872;2.400;2023-02-15T17:51:26;16.40;99.50
69418;DHT22;56610;48.872;2.400;2023-02-15T17:53:52;16.40;99.50
69418;DHT22;56610;48.872;2.400;2023-02-15T17:56:37;16.50;99.50
69418;DHT22;56610;48.872;2.400;2023-02-15T17:59:04;16.40;99.40
69418;DHT22;56610;48.872;2.400;2023-02-15T18:01:47;16.30;99.50
69418;DHT22;56610;48.872;2.400;2023-02-15T18:04:35;16.20;99.60
69418;DHT22;56610;48.872;2.400;2023-02-15T18:07:20;16.20;99.70
69418;DHT22;56610;48.872;2.400;2023-02-15T18:10:17;16.20;99.80
69418;DHT22;56610;48.872;2.400;2023-02-15T18:13:02;16.20;99.80
69418;DHT22;56610;48.872;2.400;2023-02-15T18:15:28;16.20;99.90
69418;DHT22;56610;48.872;2.400;2023-02-15T18:17:57;16.20;99.90
69418;DHT22;56610;48.872;2.400;2023-02-15T18:20:35;16.30;99.90
69418;DHT22;56610;48.872;2.400;2023-02-15T18:23:04;16.20;99.90
69418;DHT22;56610;48.872;2.400;2023-02-15T18:25:30;16.20;99.90
69418;DHT22;56610;48.872;2.400;2023-02-15T18:27:55;16.20;99.90
69418;DHT22;56610;48.872;2.400;2023-02-15T18:30:24;16.30;99.90
69418;DHT22;56610;48.872;2.400;2023-02-15T18:32:55;16.30;99.90
69418;DHT22;56610;48.872;2.400;2023-02-15T18:35:23;16.30;99.90
69418;DHT22;56610;48.872;2.400;2023-02-15T18:37:51;16.30;99.90
69418;DHT22;56610;48.872;2.400;2023-02-15T18:40:23;16.40;99.90
69418;DHT22;56610;48.872;2.400;2023-02-15T18:42:49;16.40;99.90
69418;DHT22;56610;48.872;2.400;2023-02-15T18:45:16;16.30;99.90
69418;DHT22;56610;48.872;2.400;2023-02-15T18:47:44;16.20;99.90
69418;DHT22;56610;48.872;2.400;2023-02-15T18:50:11;16.10;99.90
69418;DHT22;56610;48.872;2.400;2023-02-15T18:52:38;16.10;99.90
69418;DHT22;56610;48.872;2.400;2023-02-15T18:55:19;16.00;99.90
69418;DHT22;56610;48.872;2.400;2023-02-15T18:57:46;16.00;99.90
69418;DHT22;56610;48.872;2.400;2023-02-15T19:00:18;16.00;99.90
69418;DHT22;56610;48.872;2.400;2023-02-15T19:02:44;16.00;99.90
69418;DHT22;56610;48.872;2.400;2023-02-15T19:05:10;16.10;99.90
69418;DHT22;56610;48.872;2.400;2023-02-15T19:07:36;16.20;99.90
69418;DHT22;56610;48.872;2.400;2023-02-15T19:10:04;16.20;99.90
69418;DHT22;56610;48.872;2.400;2023-02-15T19:12:30;16.20;99.90
69418;DHT22;56610;48.872;2.400;2023-02-15T19:14:57;16.20;99.90
69418;DHT22;56610;48.872;2.400;2023-02-15T19:17:23;16.30;99.90
69418;DHT22;56610;48.872;2.400;2023-02-15T19:19:50;16.30;99.90
69418;DHT22;56610;48.872;2.400;2023-02-15T19:22:25;16.20;99.90
69418;DHT22;56610;48.872;2.400;2023-02-15T19:24:52;16.20;99.90
69418;DHT22;56610;48.872;2.400;2023-02-15T19:27:28;16.20;99.90
69418;DHT22;56610;48.872;2.400;2023-02-15T19:29:57;16.30;99.90
69418;DHT22;56610;48.872;2.400;2023-02-15T19:32:24;16.20;99.90
69418;DHT22;56610;48.872;2.400;2023-02-15T19:34:50;16.10;99.90
69418;DHT22;56610;48.872;2.400;2023-02-15T19:37:37;16.00;99.90
69418;DHT22;56610;48.872;2.400;2023-02-15T19:40:05;15.90;99.90
69418;DHT22;56610;48.872;2.400;2023-02-15T19:42:32;15.90;99.90
69418;DHT22;56610;48.872;2.400;2023-02-15T19:45:00;15.90;99.90